sensor_id;sensor_type;location;lat;lon;timestamp;pressure;altitude;pressure_sealevel;temperature;humidity
55550;BME280;41397;49.972;18.944;2022-09-30T00:02:31;101049.39;;;11.23;86.27
55550;BME280;41397;49.972;18.944;2022-09-30T00:05:32;101035.34;;;11.16;86.54
55550;BME280;41397;49.972;18.944;2022-09-30T00:08:34;101045.65;;;11.13;87.11
55550;BME280;41397;49.972;18.944;2022-09-30T00:11:36;101037.67;;;10.98;87.71
55550;BME280;41397;49.972;18.944;2022-09-30T00:14:39;101049.63;;;11.08;87.46
55550;BME280;41397;49.972;18.944;2022-09-30T00:17:41;101040.56;;;11.08;87.81
55550;BME280;41397;49.972;18.944;2022-09-30T00:20:42;101045.27;;;11.06;88.22
55550;BME280;41397;49.972;18.944;2022-09-30T00:23:44;101045.65;;;11.13;87.84
55550;BME280;41397;49.972;18.944;2022-09-30T00:26:46;101045.53;;;11.14;87.82
55550;BME280;41397;49.972;18.944;2022-09-30T00:29:47;101036.06;;;11.18;88.00
55550;BME280;41397;49.972;18.944;2022-09-30T00:32:49;101039.80;;;11.28;87.60
55550;BME280;41397;49.972;18.944;2022-09-30T00:35:50;101047.05;;;11.29;87.65
55550;BME280;41397;49.972;18.944;2022-09-30T00:38:51;101059.37;;;11.35;87.19
55550;BME280;41397;49.972;18.944;2022-09-30T00:41:59;101060.84;;;11.39;87.00
55550;BME280;41397;49.972;18.944;2022-09-30T00:45:06;101055.73;;;11.34;87.08
55550;BME280;41397;49.972;18.944;2022-09-30T00:48:18;101074.29;;;11.20;87.73
55550;BME280;41397;49.972;18.944;2022-09-30T00:51:35;101070.93;;;11.16;88.14
55550;BME280;41397;49.972;18.944;2022-09-30T00:54:33;101058.46;;;11.12;88.41
55550;BME280;41397;49.972;18.944;2022-09-30T00:57:35;101057.60;;;11.23;88.17
55550;BME280;41397;49.972;18.944;2022-09-30T01:00:37;101068.30;;;11.26;88.17
55550;BME280;41397;49.972;18.944;2022-09-30T01:03:44;101066.92;;;11.20;88.23
55550;BME280;41397;49.972;18.944;2022-09-30T01:06:50;101045.80;;;11.22;88.55
55550;BME280;41397;49.972;18.944;2022-09-30T01:10:00;101046.15;;;11.29;88.14
55550;BME280;41397;49.972;18.944;2022-09-30T01:13:04;101063.09;;;11.34;88.10
55550;BME280;41397;49.972;18.944;2022-09-30T01:32:23;101067.68;;;11.22;88.82
55550;BME280;41397;49.972;18.944;2022-09-30T01:35:32;101065.45;;;11.16;89.39
55550;BME280;41397;49.972;18.944;2022-09-30T01:38:54;101075.14;;;11.20;89.59
55550;BME280;41397;49.972;18.944;2022-09-30T01:52:02;101080.51;;;11.22;89.65
55550;BME280;41397;49.972;18.944;2022-09-30T02:01:52;101073.67;;;11.27;89.97
55550;BME280;41397;49.972;18.944;2022-09-30T02:05:02;101079.26;;;11.37;89.62
55550;BME280;41397;49.972;18.944;2022-09-30T02:08:20;101079.51;;;11.45;89.27
55550;BME280;41397;49.972;18.944;2022-09-30T02:11:27;101083.75;;;11.49;89.09
55550;BME280;41397;49.972;18.944;2022-09-30T02:14:41;101084.27;;;11.54;88.93
55550;BME280;41397;49.972;18.944;2022-09-30T02:18:02;101082.24;;;11.56;88.85
55550;BME280;41397;49.972;18.944;2022-09-30T02:21:01;101081.63;;;11.64;88.49
55550;BME280;41397;49.972;18.944;2022-09-30T02:24:07;101094.10;;;11.68;88.49
55550;BME280;41397;49.972;18.944;2022-09-30T02:27:23;101099.68;;;11.67;88.42
55550;BME280;41397;49.972;18.944;2022-09-30T02:30:38;101095.56;;;11.72;88.19
55550;BME280;41397;49.972;18.944;2022-09-30T02:33:50;101087.09;;;11.75;88.08
55550;BME280;41397;49.972;18.944;2022-09-30T02:37:03;101094.08;;;11.80;88.04
55550;BME280;41397;49.972;18.944;2022-09-30T02:40:10;101085.87;;;11.80;88.50
55550;BME280;41397;49.972;18.944;2022-09-30T02:43:15;101086.87;;;11.78;88.30
55550;BME280;41397;49.972;18.944;2022-09-30T02:59:24;101097.70;;;11.80;89.21
55550;BME280;41397;49.972;18.944;2022-09-30T03:02:26;101087.59;;;11.81;89.08
55550;BME280;41397;49.972;18.944;2022-09-30T03:05:28;101088.46;;;11.81;89.48
55550;BME280;41397;49.972;18.944;2022-09-30T03:08:29;101090.73;;;11.76;89.71
55550;BME280;41397;49.972;18.944;2022-09-30T03:11:31;101099.82;;;11.65;90.51
55550;BME280;41397;49.972;18.944;2022-09-30T03:14:47;101094.35;;;11.65;90.90
55550;BME280;41397;49.972;18.944;2022-09-30T03:18:03;101095.73;;;11.60;91.21
55550;BME280;41397;49.972;18.944;2022-09-30T03:37:28;101114.39;;;11.66;91.72
55550;BME280;41397;49.972;18.944;2022-09-30T03:47:04;101119.97;;;11.53;93.52
55550;BME280;41397;49.972;18.944;2022-09-30T03:50:14;101118.61;;;11.59;93.56
55550;BME280;41397;49.972;18.944;2022-09-30T03:53:16;101123.37;;;11.68;93.25
55550;BME280;41397;49.972;18.944;2022-09-30T03:56:25;101118.35;;;11.73;92.88
55550;BME280;41397;49.972;18.944;2022-09-30T03:59:28;101127.22;;;11.76;92.53
55550;BME280;41397;49.972;18.944;2022-09-30T04:02:29;101120.98;;;11.74;92.80
55550;BME280;41397;49.972;18.944;2022-09-30T04:05:30;101124.22;;;11.80;92.77
55550;BME280;41397;49.972;18.944;2022-09-30T04:08:31;101124.23;;;11.68;93.07
55550;BME280;41397;49.972;18.944;2022-09-30T04:11:32;101126.33;;;11.65;93.39
55550;BME280;41397;49.972;18.944;2022-09-30T04:14:34;101125.72;;;11.61;94.08
55550;BME280;41397;49.972;18.944;2022-09-30T04:17:35;101125.72;;;11.61;93.88
55550;BME280;41397;49.972;18.944;2022-09-30T04:20:37;101118.36;;;11.62;94.40
55550;BME280;41397;49.972;18.944;2022-09-30T04:23:40;101119.73;;;11.56;94.86
55550;BME280;41397;49.972;18.944;2022-09-30T04:26:41;101117.63;;;11.60;95.00
55550;BME280;41397;49.972;18.944;2022-09-30T04:29:43;101117.63;;;11.60;95.32
55550;BME280;41397;49.972;18.944;2022-09-30T04:32:44;101116.63;;;11.61;95.23
55550;BME280;41397;49.972;18.944;2022-09-30T04:35:45;101119.87;;;11.66;95.07
55550;BME280;41397;49.972;18.944;2022-09-30T04:38:46;101120.37;;;11.71;95.21
55550;BME280;41397;49.972;18.944;2022-09-30T04:41:48;101121.84;;;11.75;95.04
55550;BME280;41397;49.972;18.944;2022-09-30T04:44:53;101133.67;;;11.64;95.23
55550;BME280;41397;49.972;18.944;2022-09-30T04:47:57;101136.05;;;11.69;95.62
55550;BME280;41397;49.972;18.944;2022-09-30T04:50:58;101140.92;;;11.76;95.24
55550;BME280;41397;49.972;18.944;2022-09-30T04:54:00;101136.91;;;11.69;95.19
55550;BME280;41397;49.972;18.944;2022-09-30T04:57:02;101139.91;;;11.77;95.42
55550;BME280;41397;49.972;18.944;2022-09-30T05:00:05;101147.62;;;11.84;95.17
55550;BME280;41397;49.972;18.944;2022-09-30T05:03:09;101138.32;;;11.86;95.21
55550;BME280;41397;49.972;18.944;2022-09-30T05:06:11;101144.77;;;11.85;95.29
55550;BME280;41397;49.972;18.944;2022-09-30T05:09:12;101145.52;;;11.76;95.71
55550;BME280;41397;49.972;18.944;2022-09-30T05:12:14;101148.27;;;11.76;95.99
55550;BME280;41397;49.972;18.944;2022-09-30T05:15:15;101153.36;;;11.81;95.68
55550;BME280;41397;49.972;18.944;2022-09-30T05:18:20;101144.27;;;11.80;95.83
55550;BME280;41397;49.972;18.944;2022-09-30T05:21:21;101157.21;;;11.78;95.80
55550;BME280;41397;49.972;18.944;2022-09-30T05:24:23;101155.65;;;11.87;95.59
55550;BME280;41397;49.972;18.944;2022-09-30T05:27:27;101156.49;;;11.76;95.95
55550;BME280;41397;49.972;18.944;2022-09-30T05:30:28;101158.84;;;11.81;96.11
55550;BME280;41397;49.972;18.944;2022-09-30T05:33:30;101163.95;;;11.74;96.15
55550;BME280;41397;49.972;18.944;2022-09-30T05:36:31;101163.95;;;11.74;96.56
55550;BME280;41397;49.972;18.944;2022-09-30T05:39:32;101164.86;;;11.86;96.38
55550;BME280;41397;49.972;18.944;2022-09-30T05:42:34;101175.20;;;11.93;96.11
55550;BME280;41397;49.972;18.944;2022-09-30T05:45:38;101169.97;;;11.90;96.15
55550;BME280;41397;49.972;18.944;2022-09-30T05:48:43;101172.45;;;11.93;95.83
55550;BME280;41397;49.972;18.944;2022-09-30T05:51:45;101178.20;;;11.90;96.01
55550;BME280;41397;49.972;18.944;2022-09-30T05:54:52;101177.58;;;11.87;96.13
55550;BME280;41397;49.972;18.944;2022-09-30T05:57:55;101177.95;;;11.93;96.20
55550;BME280;41397;49.972;18.944;2022-09-30T06:00:56;101180.79;;;11.92;96.48
55550;BME280;41397;49.972;18.944;2022-09-30T06:03:58;101182.30;;;11.96;96.36
55550;BME280;41397;49.972;18.944;2022-09-30T06:07:00;101196.63;;;11.88;96.64
55550;BME280;41397;49.972;18.944;2022-09-30T06:10:09;101194.99;;;11.97;96.27
55550;BME280;41397;49.972;18.944;2022-09-30T06:13:12;101199.11;;;12.03;96.09
55550;BME280;41397;49.972;18.944;2022-09-30T06:16:17;101200.62;;;12.07;95.99
55550;BME280;41397;49.972;18.944;2022-09-30T06:19:19;101207.97;;;12.06;95.97
55550;BME280;41397;49.972;18.944;2022-09-30T06:22:26;101198.71;;;11.85;96.92
55550;BME280;41397;49.972;18.944;2022-09-30T06:25:29;101193.38;;;11.94;97.30
55550;BME280;41397;49.972;18.944;2022-09-30T06:28:31;101197.01;;;11.95;97.36
55550;BME280;41397;49.972;18.944;2022-09-30T06:31:36;101194.27;;;11.95;97.26
55550;BME280;41397;49.972;18.944;2022-09-30T06:34:37;101200.37;;;11.87;97.74
55550;BME280;41397;49.972;18.944;2022-09-30T06:37:38;101203.22;;;11.86;98.12
55550;BME280;41397;49.972;18.944;2022-09-30T06:40:43;101205.45;;;11.92;98.49
55550;BME280;41397;49.972;18.944;2022-09-30T06:43:52;101210.32;;;11.88;98.73
55550;BME280;41397;49.972;18.944;2022-09-30T06:46:54;101214.69;;;12.02;98.06
55550;BME280;41397;49.972;18.944;2022-09-30T06:50:01;101207.58;;;12.11;97.48
55550;BME280;41397;49.972;18.944;2022-09-30T06:53:04;101208.22;;;12.14;96.88
55550;BME280;41397;49.972;18.944;2022-09-30T06:56:08;101224.16;;;12.20;96.96
55550;BME280;41397;49.972;18.944;2022-09-30T06:59:10;101212.68;;;12.27;96.53
55550;BME280;41397;49.972;18.944;2022-09-30T07:02:11;101218.68;;;12.20;96.69
55550;BME280;41397;49.972;18.944;2022-09-30T07:05:13;101215.16;;;12.30;96.53
55550;BME280;41397;49.972;18.944;2022-09-30T07:08:15;101210.20;;;12.24;96.44
55550;BME280;41397;49.972;18.944;2022-09-30T07:11:16;101223.28;;;12.31;96.65
55550;BME280;41397;49.972;18.944;2022-09-30T07:14:17;101216.92;;;12.31;96.86
55550;BME280;41397;49.972;18.944;2022-09-30T07:17:18;101228.25;;;12.37;96.86
55550;BME280;41397;49.972;18.944;2022-09-30T07:20:20;101224.39;;;12.40;96.30
55550;BME280;41397;49.972;18.944;2022-09-30T07:23:22;101227.50;;;12.35;96.41
55550;BME280;41397;49.972;18.944;2022-09-30T07:26:26;101230.38;;;12.34;96.47
55550;BME280;41397;49.972;18.944;2022-09-30T07:29:28;101224.13;;;12.43;96.49
55550;BME280;41397;49.972;18.944;2022-09-30T07:32:29;101224.52;;;12.50;96.12
55550;BME280;41397;49.972;18.944;2022-09-30T07:35:30;101233.60;;;12.50;95.87
55550;BME280;41397;49.972;18.944;2022-09-30T07:38:35;101233.34;;;12.53;96.07
55550;BME280;41397;49.972;18.944;2022-09-30T07:41:39;101235.59;;;12.48;96.60
55550;BME280;41397;49.972;18.944;2022-09-30T07:44:40;101238.58;;;12.56;96.34
55550;BME280;41397;49.972;18.944;2022-09-30T07:47:44;101238.20;;;12.61;96.30
55550;BME280;41397;49.972;18.944;2022-09-30T07:50:45;101239.94;;;12.62;96.13
55550;BME280;41397;49.972;18.944;2022-09-30T07:53:49;101242.07;;;12.58;96.40
55550;BME280;41397;49.972;18.944;2022-09-30T07:56:51;101245.69;;;12.59;96.25
55550;BME280;41397;49.972;18.944;2022-09-30T07:59:52;101255.64;;;12.60;96.22
55550;BME280;41397;49.972;18.944;2022-09-30T08:02:54;101252.03;;;12.59;96.57
55550;BME280;41397;49.972;18.944;2022-09-30T08:05:55;101249.90;;;12.74;96.35
55550;BME280;41397;49.972;18.944;2022-09-30T08:08:57;101253.25;;;12.78;96.02
55550;BME280;41397;49.972;18.944;2022-09-30T08:12:01;101256.11;;;12.76;95.99
55550;BME280;41397;49.972;18.944;2022-09-30T08:15:04;101257.35;;;12.83;95.88
55550;BME280;41397;49.972;18.944;2022-09-30T08:18:15;101265.09;;;12.78;95.92
55550;BME280;41397;49.972;18.944;2022-09-30T08:21:16;101275.23;;;12.66;96.05
55550;BME280;41397;49.972;18.944;2022-09-30T08:24:17;101265.39;;;12.64;96.30
55550;BME280;41397;49.972;18.944;2022-09-30T08:27:19;101271.22;;;12.71;96.38
55550;BME280;41397;49.972;18.944;2022-09-30T08:30:23;101273.62;;;12.64;96.62
55550;BME280;41397;49.972;18.944;2022-09-30T08:33:24;101275.47;;;12.75;96.44
55550;BME280;41397;49.972;18.944;2022-09-30T08:36:26;101276.83;;;12.80;96.09
55550;BME280;41397;49.972;18.944;2022-09-30T08:39:27;101280.55;;;12.79;96.85
55550;BME280;41397;49.972;18.944;2022-09-30T08:42:40;101279.92;;;12.87;96.81
55550;BME280;41397;49.972;18.944;2022-09-30T08:49:25;101282.97;;;12.61;97.52
55550;BME280;41397;49.972;18.944;2022-09-30T08:52:19;101285.17;;;12.79;97.43
55550;BME280;41397;49.972;18.944;2022-09-30T08:55:25;101282.80;;;12.85;96.26
55550;BME280;41397;49.972;18.944;2022-09-30T08:58:38;101285.78;;;12.94;95.53
55550;BME280;41397;49.972;18.944;2022-09-30T09:01:46;101300.86;;;12.99;95.11
55550;BME280;41397;49.972;18.944;2022-09-30T09:04:50;101293.38;;;13.01;95.05
55550;BME280;41397;49.972;18.944;2022-09-30T09:11:30;101286.72;;;13.15;95.07
55550;BME280;41397;49.972;18.944;2022-09-30T09:14:30;101302.22;;;13.05;95.09
55550;BME280;41397;49.972;18.944;2022-09-30T09:20:54;101300.98;;;12.98;95.02
55550;BME280;41397;49.972;18.944;2022-09-30T09:24:00;101305.19;;;13.13;94.70
55550;BME280;41397;49.972;18.944;2022-09-30T09:27:17;101310.95;;;13.10;94.20
55550;BME280;41397;49.972;18.944;2022-09-30T09:30:20;101313.17;;;13.16;94.67
55550;BME280;41397;49.972;18.944;2022-09-30T09:33:32;101315.80;;;13.18;95.04
55550;BME280;41397;49.972;18.944;2022-09-30T09:40:18;101319.76;;;13.25;94.35
55550;BME280;41397;49.972;18.944;2022-09-30T09:43:15;101306.55;;;13.30;94.20
55550;BME280;41397;49.972;18.944;2022-09-30T09:49:39;101326.25;;;13.35;94.51
55550;BME280;41397;49.972;18.944;2022-09-30T09:55:55;101316.08;;;13.47;94.81
55550;BME280;41397;49.972;18.944;2022-09-30T09:59:13;101322.70;;;13.44;94.26
55550;BME280;41397;49.972;18.944;2022-09-30T10:02:22;101325.18;;;13.47;93.93
55550;BME280;41397;49.972;18.944;2022-09-30T10:05:27;101334.83;;;13.42;94.33
55550;BME280;41397;49.972;18.944;2022-09-30T10:08:36;101337.68;;;13.51;93.90
55550;BME280;41397;49.972;18.944;2022-09-30T10:11:39;101336.32;;;13.46;93.60
55550;BME280;41397;49.972;18.944;2022-09-30T10:17:58;101339.45;;;13.41;93.40
55550;BME280;41397;49.972;18.944;2022-09-30T10:21:04;101337.52;;;13.53;92.87
55550;BME280;41397;49.972;18.944;2022-09-30T10:27:27;101347.80;;;13.51;92.72
55550;BME280;41397;49.972;18.944;2022-09-30T10:30:38;101353.30;;;13.51;92.54
55550;BME280;41397;49.972;18.944;2022-09-30T10:33:50;101358.52;;;13.54;92.54
55550;BME280;41397;49.972;18.944;2022-09-30T10:36:55;101361.60;;;13.61;92.24
55550;BME280;41397;49.972;18.944;2022-09-30T10:40:05;101367.31;;;13.69;92.16
55550;BME280;41397;49.972;18.944;2022-09-30T10:46:31;101367.41;;;13.79;92.75
55550;BME280;41397;49.972;18.944;2022-09-30T10:49:41;101365.00;;;13.85;92.99
55550;BME280;41397;49.972;18.944;2022-09-30T10:52:55;101364.22;;;13.94;92.32
55550;BME280;41397;49.972;18.944;2022-09-30T10:55:57;101364.81;;;13.98;92.07
55550;BME280;41397;49.972;18.944;2022-09-30T10:59:02;101368.90;;;14.04;92.25
55550;BME280;41397;49.972;18.944;2022-09-30T11:02:15;101367.76;;;14.06;92.09
55550;BME280;41397;49.972;18.944;2022-09-30T11:05:22;101374.13;;;14.07;91.81
55550;BME280;41397;49.972;18.944;2022-09-30T11:11:47;101372.45;;;14.15;91.27
55550;BME280;41397;49.972;18.944;2022-09-30T11:15:01;101374.68;;;14.21;91.70
55550;BME280;41397;49.972;18.944;2022-09-30T11:18:12;101377.00;;;14.26;91.51
55550;BME280;41397;49.972;18.944;2022-09-30T11:28:00;101390.24;;;14.32;91.83
55550;BME280;41397;49.972;18.944;2022-09-30T11:32:00;101394.57;;;14.35;91.39
55550;BME280;41397;49.972;18.944;2022-09-30T11:34:50;101397.95;;;14.38;91.09
55550;BME280;41397;49.972;18.944;2022-09-30T11:47:48;101409.82;;;14.39;91.03
55550;BME280;41397;49.972;18.944;2022-09-30T11:57:42;101401.84;;;14.36;90.02
55550;BME280;41397;49.972;18.944;2022-09-30T12:00:59;101407.34;;;14.36;90.31
55550;BME280;41397;49.972;18.944;2022-09-30T12:04:11;101406.21;;;14.38;90.50
55550;BME280;41397;49.972;18.944;2022-09-30T12:07:26;101406.95;;;14.40;90.95
55550;BME280;41397;49.972;18.944;2022-09-30T12:10:36;101410.68;;;14.39;91.24
55550;BME280;41397;49.972;18.944;2022-09-30T12:13:47;101416.78;;;14.43;91.45
55550;BME280;41397;49.972;18.944;2022-09-30T12:16:51;101418.40;;;14.46;91.84
55550;BME280;41397;49.972;18.944;2022-09-30T12:20:02;101423.03;;;14.45;91.30
55550;BME280;41397;49.972;18.944;2022-09-30T12:26:23;101432.90;;;14.48;91.37
55550;BME280;41397;49.972;18.944;2022-09-30T12:29:31;101434.39;;;14.52;91.35
55550;BME280;41397;49.972;18.944;2022-09-30T12:39:27;101446.50;;;14.60;91.29
55550;BME280;41397;49.972;18.944;2022-09-30T12:42:44;101440.59;;;14.65;91.48
55550;BME280;41397;49.972;18.944;2022-09-30T12:49:03;101452.20;;;14.69;90.79
55550;BME280;41397;49.972;18.944;2022-09-30T12:52:14;101454.39;;;14.75;90.77
55550;BME280;41397;49.972;18.944;2022-09-30T12:55:26;101456.00;;;14.77;90.93
55550;BME280;41397;49.972;18.944;2022-09-30T12:58:37;101457.34;;;14.83;90.68
55550;BME280;41397;49.972;18.944;2022-09-30T13:01:43;101469.84;;;14.87;90.70
55550;BME280;41397;49.972;18.944;2022-09-30T13:04:45;101475.35;;;14.87;90.50
55550;BME280;41397;49.972;18.944;2022-09-30T13:08:40;101476.80;;;14.91;90.46
55550;BME280;41397;49.972;18.944;2022-09-30T13:11:04;101474.91;;;14.92;90.13
55550;BME280;41397;49.972;18.944;2022-09-30T13:17:23;101482.19;;;14.93;89.91
55550;BME280;41397;49.972;18.944;2022-09-30T13:27:05;101474.04;;;14.91;89.18
55550;BME280;41397;49.972;18.944;2022-09-30T13:39:52;101473.92;;;14.93;89.40
55550;BME280;41397;49.972;18.944;2022-09-30T13:42:56;101478.53;;;14.92;89.59
55550;BME280;41397;49.972;18.944;2022-09-30T13:46:06;101480.02;;;14.96;89.38
55550;BME280;41397;49.972;18.944;2022-09-30T13:52:33;101487.69;;;14.93;89.53
55550;BME280;41397;49.972;18.944;2022-09-30T13:55:42;101493.05;;;14.94;89.40
55550;BME280;41397;49.972;18.944;2022-09-30T14:08:39;101500.18;;;14.76;88.87
55550;BME280;41397;49.972;18.944;2022-09-30T14:24:53;101489.79;;;14.79;88.96
55550;BME280;41397;49.972;18.944;2022-09-30T14:28:05;101492.55;;;14.79;88.98
55550;BME280;41397;49.972;18.944;2022-09-30T14:31:14;101490.78;;;14.78;88.97
55550;BME280;41397;49.972;18.944;2022-09-30T14:34:17;101494.44;;;14.79;89.01
55550;BME280;41397;49.972;18.944;2022-09-30T14:37:27;101507.92;;;14.82;88.98
55550;BME280;41397;49.972;18.944;2022-09-30T14:40:37;101505.88;;;14.84;88.83
55550;BME280;41397;49.972;18.944;2022-09-30T14:43:43;101494.16;;;14.82;89.12
55550;BME280;41397;49.972;18.944;2022-09-30T14:46:47;101496.76;;;14.83;88.79
55550;BME280;41397;49.972;18.944;2022-09-30T14:49:49;101504.74;;;14.86;88.89
55550;BME280;41397;49.972;18.944;2022-09-30T14:52:51;101510.12;;;14.88;88.67
55550;BME280;41397;49.972;18.944;2022-09-30T14:56:01;101524.77;;;14.88;88.78
55550;BME280;41397;49.972;18.944;2022-09-30T14:59:20;101521.02;;;14.90;88.51
55550;BME280;41397;49.972;18.944;2022-09-30T15:02:18;101534.64;;;14.91;88.75
55550;BME280;41397;49.972;18.944;2022-09-30T15:05:20;101547.53;;;14.91;88.79
55550;BME280;41397;49.972;18.944;2022-09-30T15:08:22;101549.54;;;14.88;88.90
55550;BME280;41397;49.972;18.944;2022-09-30T15:11:24;101545.18;;;14.86;88.98
55550;BME280;41397;49.972;18.944;2022-09-30T15:14:29;101538.49;;;14.79;89.34
55550;BME280;41397;49.972;18.944;2022-09-30T15:17:36;101539.08;;;14.82;89.17
55550;BME280;41397;49.972;18.944;2022-09-30T15:20:38;101529.95;;;14.82;89.07
55550;BME280;41397;49.972;18.944;2022-09-30T15:23:53;101530.82;;;14.82;89.14
55550;BME280;41397;49.972;18.944;2022-09-30T15:26:56;101528.34;;;14.79;89.26
55550;BME280;41397;49.972;18.944;2022-09-30T15:30:02;101531.36;;;14.76;89.21
55550;BME280;41397;49.972;18.944;2022-09-30T15:33:04;101541.37;;;14.77;89.36
55550;BME280;41397;49.972;18.944;2022-09-30T15:36:15;101544.11;;;14.77;89.30
55550;BME280;41397;49.972;18.944;2022-09-30T15:39:21;101545.85;;;14.78;89.36
55550;BME280;41397;49.972;18.944;2022-09-30T15:42:31;101558.63;;;14.79;89.50
55550;BME280;41397;49.972;18.944;2022-09-30T15:45:38;101555.02;;;14.79;89.43
55550;BME280;41397;49.972;18.944;2022-09-30T15:48:47;101563.38;;;14.77;89.47
55550;BME280;41397;49.972;18.944;2022-09-30T15:51:49;101561.50;;;14.78;89.45
55550;BME280;41397;49.972;18.944;2022-09-30T15:54:51;101564.68;;;14.73;89.62
55550;BME280;41397;49.972;18.944;2022-09-30T15:57:52;101567.55;;;14.72;89.65
55550;BME280;41397;49.972;18.944;2022-09-30T16:04:10;101575.60;;;14.63;89.95
55550;BME280;41397;49.972;18.944;2022-09-30T16:07:15;101565.73;;;14.61;90.04
55550;BME280;41397;49.972;18.944;2022-09-30T16:10:24;101567.73;;;14.59;89.80
55550;BME280;41397;49.972;18.944;2022-09-30T16:13:30;101582.24;;;14.61;89.81
55550;BME280;41397;49.972;18.944;2022-09-30T16:16:33;101593.27;;;14.61;89.75
55550;BME280;41397;49.972;18.944;2022-09-30T16:19:36;101596.40;;;14.56;90.06
55550;BME280;41397;49.972;18.944;2022-09-30T16:22:50;101598.16;;;14.57;89.78
55550;BME280;41397;49.972;18.944;2022-09-30T16:29:06;101602.40;;;14.50;90.16
55550;BME280;41397;49.972;18.944;2022-09-30T16:32:08;101598.43;;;14.54;89.93
55550;BME280;41397;49.972;18.944;2022-09-30T16:35:21;101601.30;;;14.53;90.01
55550;BME280;41397;49.972;18.944;2022-09-30T16:38:23;101607.67;;;14.53;89.88
55550;BME280;41397;49.972;18.944;2022-09-30T16:41:25;101596.15;;;14.48;89.79
55550;BME280;41397;49.972;18.944;2022-09-30T16:44:31;101608.06;;;14.49;89.71
55550;BME280;41397;49.972;18.944;2022-09-30T16:47:37;101600.67;;;14.49;89.71
55550;BME280;41397;49.972;18.944;2022-09-30T16:50:48;101603.05;;;14.42;89.99
55550;BME280;41397;49.972;18.944;2022-09-30T16:53:53;101598.41;;;14.43;89.95
55550;BME280;41397;49.972;18.944;2022-09-30T16:56:55;101608.44;;;14.44;89.76
55550;BME280;41397;49.972;18.944;2022-09-30T16:59:58;101618.58;;;14.43;89.87
55550;BME280;41397;49.972;18.944;2022-09-30T17:02:59;101608.44;;;14.44;89.59
55550;BME280;41397;49.972;18.944;2022-09-30T17:06:00;101620.31;;;14.44;89.87
55550;BME280;41397;49.972;18.944;2022-09-30T17:09:03;101621.33;;;14.43;89.88
55550;BME280;41397;49.972;18.944;2022-09-30T17:12:05;101616.96;;;14.41;89.83
55550;BME280;41397;49.972;18.944;2022-09-30T17:15:07;101622.84;;;14.36;90.09
55550;BME280;41397;49.972;18.944;2022-09-30T17:18:10;101626.73;;;14.34;90.42
55550;BME280;41397;49.972;18.944;2022-09-30T17:21:12;101627.86;;;14.31;90.43
55550;BME280;41397;49.972;18.944;2022-09-30T17:24:13;101638.26;;;14.28;90.54
55550;BME280;41397;49.972;18.944;2022-09-30T17:27:17;101648.25;;;14.29;90.57
55550;BME280;41397;49.972;18.944;2022-09-30T17:30:19;101656.50;;;14.29;90.71
55550;BME280;41397;49.972;18.944;2022-09-30T17:33:20;101661.26;;;14.27;90.26
55550;BME280;41397;49.972;18.944;2022-09-30T17:36:22;101660.38;;;14.26;90.37
55550;BME280;41397;49.972;18.944;2022-09-30T17:39:24;101662.41;;;14.24;90.37
55550;BME280;41397;49.972;18.944;2022-09-30T17:42:29;101667.66;;;14.27;90.29
55550;BME280;41397;49.972;18.944;2022-09-30T17:45:44;101664.27;;;14.24;90.28
55550;BME280;41397;49.972;18.944;2022-09-30T17:48:47;101664.27;;;14.24;90.14
55550;BME280;41397;49.972;18.944;2022-09-30T17:51:50;101663.40;;;14.23;90.24
55550;BME280;41397;49.972;18.944;2022-09-30T17:54:52;101664.00;;;14.27;89.98
55550;BME280;41397;49.972;18.944;2022-09-30T17:57:53;101666.03;;;14.25;90.09
55550;BME280;41397;49.972;18.944;2022-09-30T18:00:55;101667.66;;;14.27;89.84
55550;BME280;41397;49.972;18.944;2022-09-30T18:04:00;101680.40;;;14.28;89.92
55550;BME280;41397;49.972;18.944;2022-09-30T18:07:01;101678.92;;;14.24;90.10
55550;BME280;41397;49.972;18.944;2022-09-30T18:10:03;101686.16;;;14.25;89.93
55550;BME280;41397;49.972;18.944;2022-09-30T18:13:05;101688.91;;;14.25;89.82
55550;BME280;41397;49.972;18.944;2022-09-30T18:16:06;101698.90;;;14.26;89.63
55550;BME280;41397;49.972;18.944;2022-09-30T18:19:08;101699.77;;;14.27;89.91
55550;BME280;41397;49.972;18.944;2022-09-30T18:22:09;101706.28;;;14.26;89.93
55550;BME280;41397;49.972;18.944;2022-09-30T18:25:11;101707.41;;;14.23;89.90
55550;BME280;41397;49.972;18.944;2022-09-30T18:28:21;101708.43;;;14.22;89.97
55550;BME280;41397;49.972;18.944;2022-09-30T18:31:24;101713.28;;;14.18;90.18
55550;BME280;41397;49.972;18.944;2022-09-30T18:34:35;101707.93;;;14.17;90.06
55550;BME280;41397;49.972;18.944;2022-09-30T18:37:38;101703.45;;;14.16;90.38
55550;BME280;41397;49.972;18.944;2022-09-30T18:40:42;101703.92;;;14.10;90.27
55550;BME280;41397;49.972;18.944;2022-09-30T18:43:50;101702.04;;;14.10;90.43
55550;BME280;41397;49.972;18.944;2022-09-30T18:46:59;101701.16;;;14.10;90.33
55550;BME280;41397;49.972;18.944;2022-09-30T18:50:00;101706.30;;;14.14;90.31
55550;BME280;41397;49.972;18.944;2022-09-30T18:53:01;101697.95;;;14.16;90.29
55550;BME280;41397;49.972;18.944;2022-09-30T18:56:08;101706.41;;;14.13;90.20
55550;BME280;41397;49.972;18.944;2022-09-30T18:59:10;101703.45;;;14.16;90.08
55550;BME280;41397;49.972;18.944;2022-09-30T19:02:15;101718.06;;;14.16;90.28
55550;BME280;41397;49.972;18.944;2022-09-30T19:05:20;101722.55;;;14.17;90.34
55550;BME280;41397;49.972;18.944;2022-09-30T19:08:22;101718.06;;;14.16;90.27